Time;durP1;ratioP1;P1;durP2;ratioP2;P2;SDS_P1;SDS_P2;PMS_P1;PMS_P2;Temp;Humidity;BMP_temperature;BMP_pressure;BME280_temperature;BME280_humidity;BME280_pressure;Samples;Min_cycle;Max_cycle;Signal;HPM_P1;HPM_P2
2021/07/14 00:02:26;;;;;;;1.77;0.63;;;17.40;99.90;;;;;;4984555;28;20054;-95
2021/07/14 00:04:58;;;;;;;0.88;0.80;;;17.40;99.90;;;;;;4987137;28;20085;-95
2021/07/14 00:07:27;;;;;;;0.70;0.70;;;17.40;99.90;;;;;;5002323;28;20129;-96
2021/07/14 00:09:56;;;;;;;1.00;0.60;;;17.50;99.90;;;;;;5003554;28;20042;-96
2021/07/14 00:12:31;;;;;;;0.75;0.70;;;17.40;99.90;;;;;;4988667;28;20054;-95
2021/07/14 00:16:59;;;;;;;0.90;0.90;;;17.50;99.90;;;;;;5002866;28;20122;-96
2021/07/14 00:23:23;;;;;;;1.00;0.55;;;17.50;99.90;;;;;;5002512;28;20054;-95
2021/07/14 00:25:50;;;;;;;0.70;0.70;;;17.40;99.90;;;;;;5001106;28;20046;-96
2021/07/14 00:28:18;;;;;;;1.67;1.20;;;17.40;99.90;;;;;;4999015;28;20478;-95
2021/07/14 00:30:50;;;;;;;1.10;1.10;;;17.40;99.90;;;;;;5000624;28;20082;-95
2021/07/14 00:33:17;;;;;;;1.50;1.40;;;17.40;99.90;;;;;;4999250;28;20141;-87
2021/07/14 00:35:44;;;;;;;1.35;1.30;;;17.30;99.90;;;;;;5000123;28;20046;-93
2021/07/14 00:38:12;;;;;;;1.33;1.15;;;17.30;99.90;;;;;;4999749;28;20129;-96
2021/07/14 00:40:39;;;;;;;1.35;1.27;;;17.30;99.90;;;;;;4999646;28;20145;-93
2021/07/14 00:43:09;;;;;;;2.63;1.23;;;17.30;99.90;;;;;;5001265;28;20065;-95
2021/07/14 00:45:39;;;;;;;1.08;1.08;;;17.30;99.90;;;;;;4999129;28;20547;-96
2021/07/14 00:48:07;;;;;;;1.35;1.17;;;17.30;99.90;;;;;;5000169;28;20061;-95
2021/07/14 00:50:39;;;;;;;1.70;1.30;;;17.30;99.90;;;;;;5000944;28;20072;-95
2021/07/14 00:53:06;;;;;;;1.27;1.27;;;17.30;99.90;;;;;;4998682;28;20054;-94
2021/07/14 00:55:34;;;;;;;1.05;1.05;;;17.30;99.90;;;;;;4999221;28;20058;-96
2021/07/14 00:58:04;;;;;;;1.20;1.20;;;17.30;99.90;;;;;;4986491;28;20070;-95
2021/07/14 01:00:33;;;;;;;1.60;1.50;;;17.30;99.90;;;;;;4998964;28;20142;-95
2021/07/14 01:03:00;;;;;;;1.50;1.42;;;17.30;99.90;;;;;;4998890;28;20462;-96
2021/07/14 01:05:44;;;;;;;1.63;1.40;;;17.30;99.90;;;;;;4997783;28;20054;-95
2021/07/14 01:08:17;;;;;;;1.35;1.35;;;17.30;99.90;;;;;;4999046;28;20058;-94
2021/07/14 01:11:13;;;;;;;2.75;1.48;;;17.30;99.90;;;;;;4996352;28;20109;-95
2021/07/14 01:14:01;;;;;;;2.47;1.63;;;17.20;99.90;;;;;;4996100;28;20089;-95
2021/07/14 01:16:38;;;;;;;1.95;1.27;;;17.20;99.90;;;;;;4998863;28;20074;-95
2021/07/14 01:19:43;;;;;;;1.88;1.48;;;17.20;99.90;;;;;;4999585;28;20065;-95
2021/07/14 01:22:40;;;;;;;1.95;1.48;;;17.20;99.90;;;;;;4997516;28;20510;-93
2021/07/14 01:25:19;;;;;;;1.95;1.50;;;17.20;99.90;;;;;;4997961;28;20109;-96
2021/07/14 01:27:49;;;;;;;1.40;1.30;;;17.20;99.90;;;;;;4998443;28;20077;-92
2021/07/14 01:30:16;;;;;;;1.38;1.27;;;17.20;99.90;;;;;;5001373;28;20125;-95
2021/07/14 01:32:44;;;;;;;3.17;1.70;;;17.30;99.90;;;;;;4998283;28;20077;-95
2021/07/14 01:35:13;;;;;;;1.58;1.52;;;17.30;99.90;;;;;;4998731;28;20046;-95
2021/07/14 01:37:44;;;;;;;1.38;1.27;;;17.30;99.90;;;;;;4999664;28;20050;-92
2021/07/14 01:40:16;;;;;;;3.15;1.52;;;17.30;99.90;;;;;;5007639;28;20051;-94
2021/07/14 01:42:48;;;;;;;2.05;1.27;;;17.30;99.90;;;;;;5003456;28;20061;-95
2021/07/14 01:45:15;;;;;;;4.57;1.40;;;17.30;99.90;;;;;;5010451;28;20048;-94
2021/07/14 01:47:46;;;;;;;1.73;1.48;;;17.30;99.90;;;;;;5014444;28;20057;-95
2021/07/14 01:50:17;;;;;;;2.70;1.95;;;17.20;99.90;;;;;;5006243;28;20042;-93
2021/07/14 01:52:44;;;;;;;2.08;1.42;;;17.20;99.90;;;;;;4998659;28;20105;-95
2021/07/14 01:55:13;;;;;;;1.90;1.80;;;17.20;99.90;;;;;;5000388;28;20089;-95
2021/07/14 01:57:41;;;;;;;2.13;2.03;;;17.20;99.90;;;;;;4999619;28;20463;-95
2021/07/14 02:00:10;;;;;;;1.60;1.50;;;17.20;99.90;;;;;;4981962;28;20050;-96
2021/07/14 02:02:48;;;;;;;1.70;1.60;;;17.20;99.90;;;;;;4997849;28;20494;-95
2021/07/14 02:05:15;;;;;;;1.70;1.60;;;17.20;99.90;;;;;;4997909;28;20047;-93
2021/07/14 02:07:42;;;;;;;1.48;1.38;;;17.20;99.90;;;;;;4997515;28;20074;-95
2021/07/14 02:10:10;;;;;;;2.17;1.77;;;17.20;99.90;;;;;;4998063;28;20089;-93
2021/07/14 02:12:39;;;;;;;1.42;1.33;;;17.20;99.90;;;;;;4997940;28;20062;-95
2021/07/14 02:15:11;;;;;;;1.70;1.60;;;17.20;99.90;;;;;;4997887;28;20423;-93
2021/07/14 02:18:09;;;;;;;2.33;1.65;;;17.20;99.90;;;;;;4996941;28;20077;-88
2021/07/14 02:20:36;;;;;;;1.67;1.50;;;17.20;99.90;;;;;;4993184;28;20054;-95
2021/07/14 02:23:08;;;;;;;1.10;1.10;;;17.20;99.90;;;;;;4999169;28;20054;-94
2021/07/14 02:25:36;;;;;;;1.45;1.35;;;17.20;99.90;;;;;;4999901;28;20058;-96
2021/07/14 02:28:04;;;;;;;1.98;1.45;;;17.20;99.90;;;;;;4998836;28;20101;-94
2021/07/14 02:30:32;;;;;;;2.88;1.30;;;17.20;99.90;;;;;;4997083;28;20054;-94
2021/07/14 02:33:02;;;;;;;3.65;1.55;;;17.20;99.90;;;;;;4998418;28;20504;-93
2021/07/14 02:35:35;;;;;;;4.95;1.77;;;17.20;99.90;;;;;;4997662;28;20050;-94
2021/07/14 02:38:24;;;;;;;2.05;1.95;;;17.10;99.90;;;;;;4999391;28;20478;-94
2021/07/14 02:41:04;;;;;;;1.65;1.60;;;17.00;99.90;;;;;;4997786;28;20057;-93
2021/07/14 02:43:35;;;;;;;6.45;1.60;;;17.00;99.90;;;;;;4997972;28;20054;-94
2021/07/14 02:46:11;;;;;;;4.20;1.73;;;17.00;99.90;;;;;;4996901;28;20112;-94
2021/07/14 02:48:40;;;;;;;1.70;1.60;;;16.90;99.90;;;;;;4998748;28;20056;-94
2021/07/14 02:51:12;;;;;;;3.10;1.60;;;16.90;99.90;;;;;;5004708;28;20054;-95
2021/07/14 02:53:50;;;;;;;2.72;1.60;;;16.80;99.90;;;;;;4998122;28;20054;-95
2021/07/14 02:56:20;;;;;;;1.35;1.30;;;16.80;99.90;;;;;;4999331;28;20050;-95
2021/07/14 02:58:58;;;;;;;1.60;1.50;;;16.80;99.90;;;;;;4996982;28;20058;-94
2021/07/14 03:01:27;;;;;;;1.75;1.40;;;16.80;99.90;;;;;;4996267;28;20051;-91
2021/07/14 03:03:56;;;;;;;2.60;1.30;;;16.80;99.90;;;;;;4995821;28;20411;-92
2021/07/14 03:06:24;;;;;;;1.48;1.42;;;16.80;99.90;;;;;;4996126;28;20096;-95
2021/07/14 03:08:52;;;;;;;1.50;1.40;;;16.80;99.90;;;;;;4995645;28;20046;-95
2021/07/14 03:11:20;;;;;;;2.60;1.30;;;16.80;99.90;;;;;;4994912;28;20078;-94
2021/07/14 03:13:48;;;;;;;1.40;1.40;;;16.70;99.90;;;;;;4995939;28;20104;-94
2021/07/14 03:16:17;;;;;;;1.60;1.60;;;16.70;99.90;;;;;;4996284;28;20499;-94
2021/07/14 03:18:48;;;;;;;1.63;1.60;;;16.70;99.90;;;;;;4996175;28;20134;-94
2021/07/14 03:21:16;;;;;;;2.45;1.83;;;16.70;99.90;;;;;;4997097;28;20051;-94
2021/07/14 03:23:46;;;;;;;5.20;1.75;;;16.70;99.90;;;;;;4997833;28;20072;-93
2021/07/14 03:26:15;;;;;;;4.03;1.70;;;16.70;99.90;;;;;;4996667;28;20074;-94
2021/07/14 03:28:44;;;;;;;3.05;2.00;;;16.70;99.90;;;;;;4998369;28;20051;-96
2021/07/14 03:31:12;;;;;;;3.30;1.70;;;16.80;99.90;;;;;;4995754;28;20081;-95
2021/07/14 03:33:40;;;;;;;5.50;2.30;;;16.80;99.90;;;;;;4996656;28;20077;-95
2021/07/14 03:36:08;;;;;;;2.33;2.08;;;16.80;99.90;;;;;;4998882;28;20495;-95
2021/07/14 03:38:38;;;;;;;3.05;1.98;;;16.80;99.90;;;;;;4996839;28;20089;-96
2021/07/14 03:41:05;;;;;;;2.03;2.00;;;16.90;99.90;;;;;;4997479;28;20058;-95
2021/07/14 03:43:34;;;;;;;3.50;2.15;;;16.80;99.90;;;;;;4997866;28;20076;-95
2021/07/14 03:46:06;;;;;;;4.18;2.30;;;16.80;99.90;;;;;;4995904;28;20398;-96
2021/07/14 03:48:37;;;;;;;4.30;2.40;;;16.90;99.90;;;;;;4993556;28;20133;-96
2021/07/14 03:51:04;;;;;;;8.82;2.53;;;16.90;99.90;;;;;;4994926;28;20072;-96
2021/07/14 03:53:31;;;;;;;2.70;1.95;;;16.90;99.90;;;;;;4994356;28;20141;-96
2021/07/14 03:55:59;;;;;;;2.45;2.35;;;16.90;99.90;;;;;;4995856;28;20050;-95
2021/07/14 03:58:26;;;;;;;2.13;1.92;;;16.90;99.90;;;;;;4994479;28;20054;-96
2021/07/14 04:00:54;;;;;;;3.85;2.17;;;16.90;99.90;;;;;;4995512;28;20451;-96
2021/07/14 04:03:26;;;;;;;3.00;2.42;;;17.00;99.90;;;;;;4998409;28;20076;-95
2021/07/14 04:05:59;;;;;;;2.45;2.15;;;17.00;99.90;;;;;;4997720;28;20182;-96
2021/07/14 04:08:32;;;;;;;3.13;2.10;;;17.00;99.90;;;;;;4999755;28;20114;-94
2021/07/14 04:10:59;;;;;;;3.63;2.28;;;17.00;99.90;;;;;;4999070;28;20194;-95
2021/07/14 04:13:26;;;;;;;2.33;1.95;;;17.00;99.90;;;;;;4997729;28;20050;-92
2021/07/14 04:15:53;;;;;;;2.05;2.03;;;17.00;99.90;;;;;;4997563;28;20558;-94
2021/07/14 04:18:20;;;;;;;3.58;1.98;;;17.00;99.90;;;;;;4998635;28;20332;-96
2021/07/14 04:20:46;;;;;;;2.70;2.05;;;17.00;99.90;;;;;;4997702;28;20145;-96
2021/07/14 04:23:13;;;;;;;2.00;1.90;;;17.00;99.90;;;;;;4997993;28;20432;-95
2021/07/14 04:25:40;;;;;;;3.25;1.92;;;17.00;99.90;;;;;;4997597;28;20467;-94
2021/07/14 04:28:07;;;;;;;2.38;1.67;;;17.00;99.90;;;;;;4997231;28;20566;-95
2021/07/14 04:30:35;;;;;;;3.17;1.83;;;17.00;99.90;;;;;;4997423;28;20407;-96
2021/07/14 04:33:02;;;;;;;2.03;1.80;;;17.10;99.90;;;;;;4996660;28;20140;-90
2021/07/14 04:35:29;;;;;;;2.97;1.65;;;17.10;99.90;;;;;;4996316;28;20138;-93
2021/07/14 04:37:56;;;;;;;1.55;1.45;;;17.10;99.90;;;;;;4997129;28;20058;-94
2021/07/14 04:40:25;;;;;;;8.82;2.10;;;17.20;99.90;;;;;;4996637;28;20053;-95
2021/07/14 04:42:52;;;;;;;3.65;1.60;;;17.20;99.90;;;;;;4998099;28;20137;-93
2021/07/14 04:45:19;;;;;;;2.55;1.50;;;17.20;99.90;;;;;;4997837;28;20057;-93
2021/07/14 04:47:46;;;;;;;3.30;1.30;;;17.10;99.90;;;;;;4997178;28;20050;-96
2021/07/14 04:50:13;;;;;;;5.32;1.52;;;17.10;99.90;;;;;;4996960;28;20051;-89
2021/07/14 04:52:40;;;;;;;1.95;1.85;;;17.10;99.90;;;;;;4995916;28;20141;-94
2021/07/14 04:55:08;;;;;;;1.65;1.45;;;17.10;99.90;;;;;;4997223;28;20129;-96
2021/07/14 04:57:36;;;;;;;3.15;1.50;;;17.10;99.90;;;;;;4996937;28;20537;-92
2021/07/14 05:00:07;;;;;;;2.63;1.63;;;17.10;99.90;;;;;;4996444;28;20136;-91
2021/07/14 05:02:34;;;;;;;1.40;1.40;;;17.10;99.90;;;;;;4997708;28;20142;-95
2021/07/14 05:05:03;;;;;;;1.65;1.45;;;17.00;99.90;;;;;;4997591;28;20054;-96
2021/07/14 05:07:30;;;;;;;3.55;1.60;;;16.90;99.90;;;;;;4997653;28;20069;-96
2021/07/14 05:09:57;;;;;;;1.33;1.33;;;17.00;99.90;;;;;;4999377;28;20078;-93
2021/07/14 05:12:26;;;;;;;1.30;1.30;;;17.00;99.90;;;;;;4997539;28;20059;-95
2021/07/14 05:14:53;;;;;;;1.33;1.20;;;16.90;99.90;;;;;;4998623;28;20133;-94
2021/07/14 05:17:20;;;;;;;2.20;1.50;;;16.90;99.90;;;;;;4997028;28;20050;-93
2021/07/14 05:19:47;;;;;;;1.65;1.55;;;16.90;99.90;;;;;;5000796;28;20057;-90
2021/07/14 05:22:14;;;;;;;2.25;1.73;;;16.90;99.90;;;;;;4998687;28;20046;-92
2021/07/14 05:24:41;;;;;;;1.70;1.60;;;16.80;99.90;;;;;;4997175;28;20410;-95
2021/07/14 05:27:08;;;;;;;1.90;1.80;;;16.70;99.90;;;;;;4997404;28;20145;-91
2021/07/14 05:29:35;;;;;;;1.80;1.67;;;16.70;99.90;;;;;;4980337;28;20050;-92
2021/07/14 05:32:02;;;;;;;2.55;1.63;;;16.70;99.90;;;;;;4998983;28;20053;-93
2021/07/14 05:34:39;;;;;;;2.97;1.30;;;16.60;99.90;;;;;;5000472;28;20475;-95
2021/07/14 05:37:06;;;;;;;4.15;1.48;;;16.70;99.90;;;;;;5002049;28;20070;-95
2021/07/14 05:39:33;;;;;;;1.60;1.50;;;16.70;99.90;;;;;;4999233;28;20050;-94
2021/07/14 05:42:01;;;;;;;1.63;1.38;;;16.70;99.90;;;;;;4999289;28;20124;-93
2021/07/14 05:44:27;;;;;;;1.20;1.10;;;16.70;99.90;;;;;;4997860;28;20084;-96
2021/07/14 05:46:56;;;;;;;1.40;1.15;;;16.80;99.90;;;;;;4999908;28;20069;-96
2021/07/14 05:49:22;;;;;;;1.10;1.10;;;16.80;99.90;;;;;;5000268;28;20057;-96
2021/07/14 05:51:49;;;;;;;3.92;1.20;;;16.80;99.90;;;;;;4998888;28;20068;-96
2021/07/14 05:54:19;;;;;;;1.55;1.40;;;16.80;99.90;;;;;;4981687;28;20054;-95
2021/07/14 05:56:46;;;;;;;2.25;1.05;;;16.80;99.90;;;;;;4998682;28;20495;-96
2021/07/14 05:59:13;;;;;;;0.88;0.88;;;16.80;99.90;;;;;;4999872;28;20054;-93
2021/07/14 06:01:41;;;;;;;1.05;0.80;;;16.80;99.90;;;;;;4996912;28;20500;-95
2021/07/14 06:04:10;;;;;;;1.40;0.88;;;16.80;99.90;;;;;;4999918;28;20462;-96
2021/07/14 06:06:38;;;;;;;3.25;1.13;;;16.80;99.90;;;;;;5001757;28;20140;-96
2021/07/14 06:09:05;;;;;;;0.90;0.90;;;16.90;99.90;;;;;;5001174;28;20057;-96
2021/07/14 06:11:32;;;;;;;1.17;0.82;;;16.90;99.90;;;;;;4999440;28;20415;-94
2021/07/14 06:14:05;;;;;;;0.95;0.95;;;16.90;99.90;;;;;;5002307;28;20061;-96
2021/07/14 06:16:36;;;;;;;1.75;0.60;;;16.80;99.90;;;;;;4999069;28;20061;-96
2021/07/14 06:19:07;;;;;;;0.70;0.70;;;16.80;99.90;;;;;;4981937;28;20050;-95
2021/07/14 06:21:33;;;;;;;2.92;1.00;;;16.70;99.90;;;;;;4996792;28;20448;-95
2021/07/14 06:24:00;;;;;;;1.02;1.02;;;16.70;99.90;;;;;;4997144;28;20050;-96
2021/07/14 06:26:32;;;;;;;1.52;1.17;;;16.70;99.90;;;;;;4998768;28;20062;-94
2021/07/14 06:29:01;;;;;;;0.90;0.90;;;16.70;99.90;;;;;;5000400;28;20137;-96
2021/07/14 06:31:28;;;;;;;1.65;1.00;;;16.70;99.90;;;;;;5002638;28;20046;-95
2021/07/14 06:33:55;;;;;;;6.57;1.08;;;16.70;99.90;;;;;;5001450;28;20054;-93
2021/07/14 06:36:22;;;;;;;1.00;1.00;;;16.70;99.90;;;;;;5004487;28;20061;-91
2021/07/14 06:38:49;;;;;;;1.27;1.27;;;16.60;99.90;;;;;;4997023;28;20403;-95
2021/07/14 06:41:18;;;;;;;1.30;1.20;;;16.60;99.90;;;;;;4997522;28;20140;-94
2021/07/14 06:43:47;;;;;;;1.58;1.30;;;16.50;99.90;;;;;;4995626;28;20490;-93
2021/07/14 06:46:16;;;;;;;1.25;1.25;;;16.60;99.90;;;;;;4994834;28;20054;-95
2021/07/14 06:48:44;;;;;;;1.20;1.20;;;16.60;99.90;;;;;;4996359;28;20491;-94
2021/07/14 06:51:11;;;;;;;1.50;1.10;;;16.70;99.90;;;;;;4997900;28;20133;-95
2021/07/14 06:53:38;;;;;;;1.58;1.10;;;16.70;99.90;;;;;;4997909;28;20062;-88
2021/07/14 06:56:07;;;;;;;1.85;1.45;;;16.70;99.90;;;;;;4997160;28;20077;-92
2021/07/14 06:58:39;;;;;;;1.70;1.60;;;16.70;99.90;;;;;;4996790;28;20547;-94
2021/07/14 07:01:07;;;;;;;1.60;1.40;;;16.80;99.90;;;;;;4996250;28;20134;-93
2021/07/14 07:03:35;;;;;;;2.15;1.42;;;16.80;99.90;;;;;;4997479;28;20070;-96
2021/07/14 07:06:03;;;;;;;1.70;1.60;;;16.80;99.90;;;;;;4996693;28;20495;-94
2021/07/14 07:08:32;;;;;;;5.03;3.50;;;16.70;99.90;;;;;;4995445;28;20077;-95
2021/07/14 07:11:07;;;;;;;13.75;9.82;;;16.70;99.90;;;;;;4997033;28;20077;-96
2021/07/14 07:13:34;;;;;;;1.77;1.27;;;16.70;99.90;;;;;;4997213;28;20463;-93
2021/07/14 07:16:04;;;;;;;7.45;4.90;;;16.60;99.90;;;;;;4995701;28;20074;-95
2021/07/14 07:18:31;;;;;;;7.13;4.85;;;16.60;99.90;;;;;;4995794;28;20045;-95
2021/07/14 07:20:58;;;;;;;10.10;3.70;;;16.60;99.90;;;;;;4995203;28;20503;-94
2021/07/14 07:23:29;;;;;;;3.92;3.50;;;16.70;99.90;;;;;;4995241;28;20058;-96
2021/07/14 07:25:57;;;;;;;5.05;4.00;;;16.80;99.90;;;;;;4993954;28;20054;-94
2021/07/14 07:28:29;;;;;;;4.10;3.47;;;16.90;99.90;;;;;;4994486;28;20097;-95
2021/07/14 07:30:56;;;;;;;6.30;3.42;;;17.10;99.90;;;;;;4994234;28;20129;-91
2021/07/14 07:33:22;;;;;;;6.03;5.53;;;17.30;99.90;;;;;;4993264;28;20137;-93
2021/07/14 07:35:51;;;;;;;1.40;1.30;;;17.60;99.90;;;;;;4995837;28;20122;-96
2021/07/14 07:38:24;;;;;;;1.02;1.02;;;17.70;99.90;;;;;;4997536;28;20058;-93
2021/07/14 07:40:54;;;;;;;2.25;1.10;;;17.60;99.90;;;;;;5001444;28;20133;-95
2021/07/14 07:43:22;;;;;;;1.70;1.60;;;17.40;99.90;;;;;;5001919;28;20518;-95
2021/07/14 07:45:48;;;;;;;5.85;4.75;;;17.30;99.90;;;;;;4999550;28;20140;-94
2021/07/14 07:48:15;;;;;;;2.17;1.30;;;17.20;99.90;;;;;;4998791;28;20109;-94
2021/07/14 07:50:43;;;;;;;3.40;3.10;;;17.10;99.90;;;;;;4997807;28;20480;-95
2021/07/14 07:53:10;;;;;;;2.20;2.00;;;17.20;99.90;;;;;;5000164;28;20073;-92
2021/07/14 07:55:36;;;;;;;4.97;3.17;;;17.30;99.90;;;;;;4997190;28;20463;-92
2021/07/14 07:58:03;;;;;;;1.60;1.50;;;17.50;99.90;;;;;;4999673;28;20050;-91
2021/07/14 08:00:30;;;;;;;1.42;1.35;;;17.70;99.90;;;;;;4998359;28;20118;-93
2021/07/14 08:02:57;;;;;;;6.13;4.63;;;18.00;99.90;;;;;;4997573;28;20054;-92
2021/07/14 08:05:24;;;;;;;4.10;3.72;;;18.40;99.90;;;;;;4996480;28;20050;-92
2021/07/14 08:07:51;;;;;;;3.47;1.50;;;19.00;99.90;;;;;;4998745;28;20462;-92
2021/07/14 08:10:18;;;;;;;0.93;0.93;;;18.90;99.90;;;;;;4996848;28;20141;-92
2021/07/14 08:12:45;;;;;;;4.43;0.95;;;19.10;99.90;;;;;;4997303;28;20515;-91
2021/07/14 08:15:12;;;;;;;10.98;1.10;;;19.30;99.90;;;;;;4996715;28;20060;-92
2021/07/14 08:17:40;;;;;;;0.95;0.95;;;20.30;99.90;;;;;;4996986;28;20042;-93
2021/07/14 08:20:08;;;;;;;1.00;1.00;;;20.70;99.90;;;;;;4997835;28;20089;-93
2021/07/14 08:22:35;;;;;;;0.93;0.93;;;20.30;99.90;;;;;;4997255;28;20112;-94
2021/07/14 08:25:07;;;;;;;1.13;1.10;;;20.00;99.90;;;;;;4998223;28;20137;-91
2021/07/14 08:27:37;;;;;;;2.38;1.30;;;19.70;99.90;;;;;;4996631;28;20392;-96
2021/07/14 08:30:06;;;;;;;1.38;1.05;;;19.50;99.90;;;;;;4996711;28;20074;-92
2021/07/14 08:32:33;;;;;;;2.60;2.10;;;19.50;99.90;;;;;;4996970;28;20065;-94
2021/07/14 08:35:02;;;;;;;1.80;1.80;;;19.50;99.90;;;;;;4996910;28;20065;-95
2021/07/14 08:37:29;;;;;;;5.10;2.10;;;19.50;99.90;;;;;;4997597;28;20054;-92
2021/07/14 08:39:56;;;;;;;2.50;1.30;;;19.30;99.90;;;;;;4996317;28;20129;-95
2021/07/14 08:42:25;;;;;;;1.40;1.40;;;19.20;99.90;;;;;;4995485;28;20133;-91
2021/07/14 08:44:55;;;;;;;1.65;1.55;;;19.20;99.90;;;;;;4995738;28;20083;-89
2021/07/14 08:47:22;;;;;;;1.10;1.10;;;19.20;99.90;;;;;;4994806;28;20070;-91
2021/07/14 08:49:50;;;;;;;1.55;1.48;;;19.20;99.90;;;;;;4995676;28;20141;-90
2021/07/14 08:52:18;;;;;;;2.30;1.77;;;19.10;99.90;;;;;;4996917;28;20042;-92
2021/07/14 08:54:46;;;;;;;1.85;1.70;;;18.90;99.90;;;;;;4995895;28;20090;-92
2021/07/14 08:57:17;;;;;;;2.40;2.30;;;18.90;99.90;;;;;;5002632;28;20108;-90
2021/07/14 08:59:45;;;;;;;1.63;1.60;;;19.10;99.90;;;;;;5000811;28;20070;-91
2021/07/14 09:02:13;;;;;;;1.63;1.55;;;19.00;99.90;;;;;;4999033;28;20110;-92
2021/07/14 09:04:40;;;;;;;6.50;2.08;;;18.90;99.90;;;;;;4996018;28;20057;-92
2021/07/14 09:07:08;;;;;;;3.05;1.60;;;18.70;99.90;;;;;;4997176;28;20137;-92
2021/07/14 09:09:37;;;;;;;1.92;1.83;;;18.70;99.90;;;;;;4996966;28;20054;-94
2021/07/14 09:12:10;;;;;;;3.25;1.60;;;18.90;99.90;;;;;;4995361;28;20145;-90
2021/07/14 09:14:41;;;;;;;1.50;1.45;;;19.20;99.90;;;;;;4996615;28;20080;-94
2021/07/14 09:17:19;;;;;;;1.73;1.63;;;19.60;99.90;;;;;;4997435;28;20054;-95
2021/07/14 09:19:46;;;;;;;2.20;2.10;;;19.70;99.90;;;;;;4994865;28;20043;-91
2021/07/14 09:22:25;;;;;;;4.43;1.80;;;19.90;99.90;;;;;;4995643;28;20083;-95
2021/07/14 09:24:56;;;;;;;1.50;1.50;;;19.80;99.90;;;;;;4997313;28;20053;-91
2021/07/14 09:27:31;;;;;;;2.60;1.13;;;19.60;99.90;;;;;;4996091;28;20058;-94
2021/07/14 09:30:16;;;;;;;1.90;1.40;;;19.50;99.90;;;;;;4995247;28;20078;-89
2021/07/14 09:32:52;;;;;;;2.63;1.63;;;19.50;99.90;;;;;;4996253;28;20069;-92
2021/07/14 09:35:25;;;;;;;1.30;1.30;;;19.40;99.90;;;;;;4995813;28;20133;-94
2021/07/14 09:37:54;;;;;;;2.17;1.30;;;19.30;99.90;;;;;;4994093;28;20141;-92
2021/07/14 09:40:21;;;;;;;6.03;1.52;;;19.40;99.90;;;;;;4995886;28;20133;-92
2021/07/14 09:43:11;;;;;;;2.20;1.20;;;19.30;99.90;;;;;;4996553;28;20137;-89
2021/07/14 09:45:45;;;;;;;2.92;1.30;;;18.90;99.90;;;;;;4996513;28;20058;-91
2021/07/14 09:48:24;;;;;;;1.40;1.40;;;18.60;99.90;;;;;;4994933;28;20057;-93
2021/07/14 09:50:58;;;;;;;1.10;1.10;;;18.60;99.90;;;;;;4995274;28;20078;-91
2021/07/14 09:53:28;;;;;;;1.05;1.05;;;18.60;99.90;;;;;;4995004;28;20054;-91
2021/07/14 09:55:58;;;;;;;2.03;1.30;;;18.80;99.90;;;;;;4995592;28;20145;-91
2021/07/14 09:58:31;;;;;;;1.65;1.10;;;18.80;99.90;;;;;;4994937;28;20418;-91
2021/07/14 10:01:06;;;;;;;2.40;1.58;;;18.80;99.90;;;;;;4996045;28;20053;-93
2021/07/14 10:03:36;;;;;;;1.30;1.30;;;18.70;99.90;;;;;;4980855;28;20085;-91
2021/07/14 10:06:11;;;;;;;2.65;1.38;;;18.70;99.90;;;;;;4996752;28;20149;-93
2021/07/14 10:08:48;;;;;;;2.08;1.40;;;19.00;99.90;;;;;;4995055;28;20058;-92
2021/07/14 10:11:29;;;;;;;1.15;1.15;;;19.10;99.90;;;;;;4995236;28;20062;-88
2021/07/14 10:14:07;;;;;;;1.35;1.30;;;19.50;99.90;;;;;;4996398;28;20061;-91
2021/07/14 10:16:39;;;;;;;1.27;1.27;;;20.20;99.90;;;;;;4995819;28;20051;-92
2021/07/14 10:19:08;;;;;;;1.30;1.30;;;20.00;99.90;;;;;;4995477;28;20126;-90
2021/07/14 10:21:42;;;;;;;1.10;1.10;;;19.70;99.90;;;;;;4993985;28;20304;-91
2021/07/14 10:24:12;;;;;;;2.00;1.25;;;19.70;99.90;;;;;;4994169;28;20064;-92
2021/07/14 10:26:44;;;;;;;2.05;1.17;;;19.70;99.90;;;;;;4977135;28;20089;-94
2021/07/14 10:29:12;;;;;;;1.40;1.20;;;20.00;99.90;;;;;;4994933;28;20051;-91
2021/07/14 10:31:40;;;;;;;1.35;0.90;;;20.10;99.90;;;;;;4992319;28;20462;-88
2021/07/14 10:34:10;;;;;;;2.28;1.27;;;21.30;99.90;;;;;;4994154;28;20050;-92
2021/07/14 10:36:38;;;;;;;1.80;1.15;;;23.20;99.90;;;;;;4995035;28;20078;-92
2021/07/14 10:39:14;;;;;;;2.13;1.20;;;24.90;99.90;;;;;;4994178;28;20057;-92
2021/07/14 10:41:41;;;;;;;0.90;0.90;;;24.90;99.90;;;;;;4994506;28;20057;-93
2021/07/14 10:44:08;;;;;;;1.08;1.08;;;24.40;99.90;;;;;;4995073;28;20133;-89
2021/07/14 10:46:37;;;;;;;1.40;0.90;;;23.50;99.90;;;;;;4993660;28;20065;-92
2021/07/14 10:49:09;;;;;;;1.75;0.80;;;23.20;99.90;;;;;;4994255;28;20510;-92
2021/07/14 10:51:37;;;;;;;0.88;0.88;;;23.50;99.90;;;;;;4994793;28;20046;-95
2021/07/14 10:54:07;;;;;;;1.08;0.98;;;23.80;99.90;;;;;;4994300;28;20422;-93
2021/07/14 10:56:40;;;;;;;0.90;0.90;;;24.20;99.90;;;;;;4994029;28;20138;-90
2021/07/14 10:59:07;;;;;;;0.80;0.80;;;24.10;99.90;;;;;;4994726;28;20509;-92
2021/07/14 11:01:42;;;;;;;1.05;1.00;;;23.90;99.90;;;;;;4993883;28;20472;-93
2021/07/14 11:04:13;;;;;;;1.88;1.00;;;23.40;99.90;;;;;;4993568;28;20114;-94
2021/07/14 11:06:57;;;;;;;4.88;1.20;;;22.80;99.90;;;;;;4995556;28;20125;-91
2021/07/14 11:09:39;;;;;;;1.38;1.15;;;22.30;99.90;;;;;;4996410;28;20050;-95
2021/07/14 11:12:09;;;;;;;1.15;1.15;;;21.60;99.90;;;;;;4997447;28;20054;-89
2021/07/14 11:14:40;;;;;;;1.15;1.15;;;21.50;99.90;;;;;;4999070;28;20058;-91
2021/07/14 11:17:09;;;;;;;4.63;1.50;;;21.60;99.90;;;;;;4999050;28;20150;-91
2021/07/14 11:19:52;;;;;;;1.00;1.00;;;22.40;99.90;;;;;;4999227;28;20118;-91
2021/07/14 11:22:40;;;;;;;1.10;1.10;;;22.30;99.90;;;;;;4999016;28;20137;-94
2021/07/14 11:25:09;;;;;;;1.42;1.20;;;22.10;99.90;;;;;;4999032;28;20058;-90
2021/07/14 11:27:38;;;;;;;0.90;0.90;;;22.60;99.90;;;;;;4997894;28;20137;-90
2021/07/14 11:30:06;;;;;;;5.97;1.58;;;22.80;99.90;;;;;;4996839;28;20057;-90
2021/07/14 11:32:39;;;;;;;2.92;1.30;;;22.60;99.90;;;;;;4997464;28;20400;-90
2021/07/14 11:35:16;;;;;;;0.80;0.80;;;22.10;99.90;;;;;;4996861;28;20058;-91
2021/07/14 11:37:55;;;;;;;1.65;1.10;;;22.20;99.90;;;;;;4996797;28;20076;-90
2021/07/14 11:40:23;;;;;;;1.88;0.70;;;22.40;99.90;;;;;;4998954;28;20057;-91
2021/07/14 11:43:01;;;;;;;2.85;0.80;;;22.10;99.90;;;;;;4999733;28;20069;-88
2021/07/14 11:45:34;;;;;;;1.42;0.80;;;21.50;99.90;;;;;;4999448;28;20161;-89
2021/07/14 11:48:11;;;;;;;0.80;0.80;;;21.60;99.90;;;;;;4998298;28;20430;-91
2021/07/14 11:50:54;;;;;;;0.70;0.70;;;22.30;99.90;;;;;;4998055;28;20058;-93
2021/07/14 11:53:37;;;;;;;0.80;0.80;;;22.40;99.90;;;;;;4998355;28;20085;-91
2021/07/14 11:56:10;;;;;;;2.90;0.80;;;22.30;99.90;;;;;;4996369;28;20046;-90
2021/07/14 11:58:57;;;;;;;2.22;0.80;;;22.90;99.90;;;;;;4997492;28;20079;-94
2021/07/14 12:01:26;;;;;;;3.10;0.60;;;23.10;99.90;;;;;;4996839;28;20064;-88
2021/07/14 12:04:02;;;;;;;0.70;0.70;;;23.30;99.90;;;;;;4996320;28;20065;-88
2021/07/14 12:06:44;;;;;;;3.45;0.70;;;23.40;99.90;;;;;;4996449;28;20837;-92
2021/07/14 12:09:15;;;;;;;2.17;0.60;;;23.50;99.90;;;;;;4996330;28;20051;-90
2021/07/14 12:12:19;;;;;;;0.70;0.70;;;23.40;99.90;;;;;;4996131;28;20145;-88
2021/07/14 12:14:51;;;;;;;0.85;0.70;;;23.30;99.90;;;;;;4975796;28;20488;-90
2021/07/14 12:17:23;;;;;;;0.60;0.60;;;23.40;99.90;;;;;;4996535;28;20470;-89
2021/07/14 12:19:59;;;;;;;0.45;0.45;;;23.40;99.90;;;;;;4996051;28;20050;-90
2021/07/14 12:22:28;;;;;;;0.68;0.68;;;23.50;99.90;;;;;;4995718;28;20133;-91
2021/07/14 12:24:58;;;;;;;6.63;1.67;;;23.70;99.90;;;;;;4996194;28;20052;-92
2021/07/14 12:27:28;;;;;;;1.42;0.70;;;23.40;99.90;;;;;;4997035;28;20076;-89
2021/07/14 12:29:58;;;;;;;3.60;0.90;;;22.60;99.90;;;;;;4997380;28;20061;-90
2021/07/14 12:32:55;;;;;;;0.60;0.60;;;21.90;99.90;;;;;;4996389;28;20078;-92
2021/07/14 12:35:22;;;;;;;1.15;1.10;;;22.10;99.90;;;;;;4994469;28;20149;-91
2021/07/14 12:37:55;;;;;;;3.13;1.35;;;22.20;99.90;;;;;;4995633;28;20061;-90
2021/07/14 12:40:33;;;;;;;1.27;0.90;;;22.30;99.90;;;;;;4996315;28;20053;-90
2021/07/14 12:43:07;;;;;;;0.80;0.80;;;22.60;99.90;;;;;;4995997;28;20196;-91
2021/07/14 12:45:38;;;;;;;0.88;0.80;;;22.60;99.90;;;;;;4995914;28;20137;-92
2021/07/14 12:48:06;;;;;;;1.55;0.68;;;22.30;99.90;;;;;;4996247;28;20050;-91
2021/07/14 12:50:35;;;;;;;0.82;0.82;;;22.10;99.90;;;;;;4995517;28;20457;-92
2021/07/14 12:53:03;;;;;;;1.83;0.70;;;22.30;99.90;;;;;;4995820;28;20381;-94
2021/07/14 12:55:31;;;;;;;0.90;0.88;;;22.70;99.90;;;;;;4996383;28;20050;-94
2021/07/14 12:58:11;;;;;;;3.95;0.90;;;22.90;99.90;;;;;;4995607;28;20046;-93
2021/07/14 13:00:41;;;;;;;0.70;0.70;;;23.00;99.90;;;;;;4995000;28;20479;-92
2021/07/14 13:03:26;;;;;;;0.70;0.70;;;23.20;99.90;;;;;;4995376;28;20050;-89
2021/07/14 13:05:56;;;;;;;1.13;0.88;;;23.10;99.90;;;;;;4993874;28;20074;-95
2021/07/14 13:08:26;;;;;;;1.90;0.80;;;22.90;99.90;;;;;;4995372;28;20054;-94
2021/07/14 13:10:58;;;;;;;3.22;0.80;;;22.90;99.90;;;;;;4995528;28;20113;-92